Callaway, NE (68825)

7:07 PM CST on December 21, 2014 (GMT -0600)
South of Town | Change Station
CLOSE
Current Station
Personal Weather Station
Location: Broken Bow, NE
Elevation: 2523 ft
Nearby Weather Stations

Elev 2523 ft 41.38 °N, 99.64 °W | Updated 1 minute ago

Overcast
Overcast
36.4 °F
Feels Like 36 °F
N
3.0
Wind Variable Wind from SSE
Gusts 6.0 mph

Today
High -- | Low -- °F
--% Chance of Precip.
Yesterday
High -- | Low -- °F
Precip. -- in
8:02 AM 5:13 PM
Waning Crescent, 0% visible
Pressure 29.57 in
Visibility 6.0 miles
Clouds Overcast 800 ft
Windchill 36 °F
Dew Point 35 °F
Humidity 93%
Rainfall 0.00 in
Snow Depth Not available.
UV 0 out of 12
Pollen .10 out of 12
Air Quality Not available.
Flu Activity Not available.
METAR KBBW 220053Z AUTO 17003KT 6SM BR OVC008 03/02 A2952 RMK AO2 CIG 007V011 SLP013 T00330017

More Conditions Fewer Conditions

Pressure 29.57 in
Visibility 6.0 miles
Clouds Overcast 800 ft
Windchill 36 °F
Dew Point 35 °F
Humidity 93%
Rainfall 0.00 in
Snow Depth Not available.
UV 0 out of 12
Pollen .10 out of 12
Air Quality Not available.
Flu Activity Not available.
METAR KBBW 220053Z AUTO 17003KT 6SM BR OVC008 03/02 A2952 RMK AO2 CIG 007V011 SLP013 T00330017

More Conditions Fewer Conditions

10-Day Weather Forecast

Almanac

Astronomy

Dec. 21, 2014 Rise Set
Actual Time
Civil Twilight
Nautical Twilight
Astronomical Twilight
Moon
Length of Visible Light
Length of Day
Tomorrow will be .
, % of the Moon is Illuminated

Today's Extremes

State Highs State Lows

Community

WunderPhotos

Upload Photos

1,779,511 photos uploaded!

WunderBlogs® & News

Nearby

Air Quality

  Air Quality AQ Index Pollutant
Not available.

Snow Depth

Station Depth Elevation

Earthquake Activity

City Distance Mag. Time & Date
Minimum magnitude displayed is 2.5.

Coastal Water Temperatures

Place Temperature

Nearby Weather Stations